Time;durP1;ratioP1;P1;durP2;ratioP2;P2;SDS_P1;SDS_P2;PMS_P1;PMS_P2;Temp;Humidity;BMP_temperature;BMP_pressure;BME280_temperature;BME280_humidity;BME280_pressure;Samples;Min_cycle;Max_cycle;Signal;HPM_P1;HPM_P2
2023/01/06 00:02:01;;;;;;;5.97;4.10;;;;;;;10.11;100.00;100620.19;5019382;28;20271;-60
2023/01/06 00:04:26;;;;;;;5.73;4.70;;;;;;;10.07;100.00;100617.81;5031003;28;20707;-60
2023/01/06 00:06:52;;;;;;;7.17;4.83;;;;;;;10.01;100.00;100614.63;5022036;28;20258;-60
2023/01/06 00:09:17;;;;;;;6.43;4.37;;;;;;;9.95;100.00;100614.91;5021072;28;20210;-60
2023/01/06 00:11:42;;;;;;;6.43;4.70;;;;;;;9.99;100.00;100610.47;5024320;28;20226;-63
2023/01/06 00:14:08;;;;;;;5.87;4.67;;;;;;;10.03;100.00;100599.13;5033038;28;20523;-60
2023/01/06 00:16:34;;;;;;;4.83;4.40;;;;;;;10.00;100.00;100599.28;5029951;28;20283;-62
2023/01/06 00:19:00;;;;;;;6.80;4.97;;;;;;;10.01;100.00;100601.78;5034363;28;20630;-60
2023/01/06 00:21:26;;;;;;;5.37;4.87;;;;;;;9.95;100.00;100601.22;5027224;28;20268;-60
2023/01/06 00:23:51;;;;;;;6.60;5.20;;;;;;;9.99;100.00;100597.63;5013756;28;20222;-60
2023/01/06 00:26:16;;;;;;;8.70;5.40;;;;;;;9.95;100.00;100594.34;5006161;28;20184;-60
2023/01/06 00:28:42;;;;;;;6.70;4.47;;;;;;;10.02;100.00;100597.47;5012573;28;20552;-60
2023/01/06 00:31:10;;;;;;;5.63;4.93;;;;;;;10.05;100.00;100587.06;5021313;28;20366;-60
2023/01/06 00:33:36;;;;;;;7.00;5.57;;;;;;;9.96;100.00;100590.03;5026171;28;20748;-60
2023/01/06 00:36:02;;;;;;;5.83;4.53;;;;;;;9.94;100.00;100590.09;5009288;28;20214;-60
2023/01/06 00:38:27;;;;;;;5.50;4.80;;;;;;;9.92;100.00;100584.19;5011769;28;20519;-60
2023/01/06 00:40:52;;;;;;;8.00;5.10;;;;;;;9.95;100.00;100575.53;5013130;28;20649;-61
2023/01/06 00:43:18;;;;;;;5.90;4.73;;;;;;;9.90;100.00;100582.59;5037662;28;20195;-61
2023/01/06 00:45:43;;;;;;;6.27;5.07;;;;;;;10.01;100.00;100583.78;5026661;28;20707;-61
2023/01/06 00:48:08;;;;;;;4.80;4.30;;;;;;;9.98;100.00;100575.38;5030134;28;20198;-62
2023/01/06 00:50:34;;;;;;;5.43;4.40;;;;;;;10.01;100.00;100564.97;5050592;28;20228;-62
2023/01/06 00:52:59;;;;;;;4.47;4.07;;;;;;;10.00;100.00;100566.69;5052083;28;20290;-61
2023/01/06 00:55:24;;;;;;;4.90;4.13;;;;;;;10.10;100.00;100561.97;5024698;28;20220;-61
2023/01/06 00:57:51;;;;;;;4.50;3.70;;;;;;;10.05;100.00;100571.63;5019082;28;20179;-61
2023/01/06 01:00:17;;;;;;;3.00;2.80;;;;;;;10.08;100.00;100568.91;5019219;28;20182;-61
2023/01/06 01:02:42;;;;;;;3.37;3.07;;;;;;;10.12;100.00;100575.59;5061224;28;20228;-60
2023/01/06 01:05:08;;;;;;;3.90;2.73;;;;;;;10.18;100.00;100574.47;5028950;28;20234;-62
2023/01/06 01:07:33;;;;;;;3.23;2.93;;;;;;;10.32;100.00;100568.72;5031638;28;20177;-61
2023/01/06 01:09:58;;;;;;;3.93;3.10;;;;;;;10.37;100.00;100565.97;5031112;28;20210;-60
2023/01/06 01:12:23;;;;;;;3.30;3.00;;;;;;;10.44;100.00;100559.63;5041122;28;20224;-60
2023/01/06 01:14:53;;;;;;;2.93;2.63;;;;;;;10.43;100.00;100561.38;5064585;28;20265;-61
2023/01/06 01:17:30;;;;;;;2.57;2.37;;;;;;;10.39;100.00;100559.00;5031596;28;20262;-60
2023/01/06 01:19:56;;;;;;;3.10;2.80;;;;;;;10.48;100.00;100563.72;5032006;28;20272;-61
2023/01/06 01:22:23;;;;;;;3.13;2.70;;;;;;;10.43;100.00;100563.09;5047668;28;20236;-61
2023/01/06 01:24:49;;;;;;;4.47;2.70;;;;;;;10.44;100.00;100577.63;5003934;28;20321;-60
2023/01/06 01:27:14;;;;;;;2.97;2.53;;;;;;;10.38;100.00;100581.34;5020793;28;20261;-61
2023/01/06 01:29:39;;;;;;;3.40;2.87;;;;;;;10.33;100.00;100578.09;5011552;28;20218;-61
2023/01/06 01:32:05;;;;;;;2.37;2.17;;;;;;;10.12;100.00;100578.19;5034988;28;20255;-60
2023/01/06 01:34:31;;;;;;;2.50;2.30;;;;;;;10.07;100.00;100584.41;5012808;28;20190;-60
2023/01/06 01:36:56;;;;;;;3.23;2.53;;;;;;;10.07;100.00;100586.97;5007709;28;20647;-60
2023/01/06 01:39:25;;;;;;;2.80;2.60;;;;;;;9.98;100.00;100583.09;5012165;28;20171;-60
2023/01/06 01:41:51;;;;;;;2.30;2.10;;;;;;;10.10;100.00;100579.16;5048518;28;20243;-60
2023/01/06 01:44:50;;;;;;;2.43;2.20;;;;;;;10.06;100.00;100572.47;5016851;28;20167;-60
2023/01/06 01:47:20;;;;;;;2.03;1.93;;;;;;;10.14;100.00;100572.97;5023417;28;20183;-61
2023/01/06 01:49:48;;;;;;;3.27;2.10;;;;;;;10.21;100.00;100573.50;5029889;28;20687;-60
2023/01/06 01:52:14;;;;;;;2.53;1.97;;;;;;;10.22;100.00;100575.19;5046702;28;20241;-60
2023/01/06 01:54:40;;;;;;;2.20;2.00;;;;;;;10.20;100.00;100570.13;5029407;28;20525;-60
2023/01/06 01:57:14;;;;;;;2.50;2.27;;;;;;;10.16;100.00;100572.00;5025196;28;20537;-60
2023/01/06 01:59:41;;;;;;;2.43;1.97;;;;;;;10.21;100.00;100576.94;5020682;28;20178;-61
2023/01/06 02:02:10;;;;;;;2.80;2.60;;;;;;;10.23;100.00;100575.09;5052831;28;20224;-60
2023/01/06 02:04:40;;;;;;;2.50;2.30;;;;;;;10.14;100.00;100573.78;5032156;28;20234;-60
2023/01/06 02:07:05;;;;;;;2.67;2.47;;;;;;;9.99;100.00;100577.06;5031062;28;20221;-60
2023/01/06 02:09:43;;;;;;;2.53;2.33;;;;;;;9.97;100.00;100572.00;5032300;28;20313;-60
2023/01/06 02:12:08;;;;;;;4.60;2.90;;;;;;;9.83;100.00;100569.19;5035858;28;20683;-60
2023/01/06 02:14:34;;;;;;;3.10;2.90;;;;;;;9.83;100.00;100571.75;5022838;28;20196;-61
2023/01/06 02:17:03;;;;;;;3.90;3.53;;;;;;;9.86;100.00;100579.34;5030653;28;20240;-60
2023/01/06 02:19:50;;;;;;;5.03;3.17;;;;;;;9.78;100.00;100576.25;5031525;28;20186;-60
2023/01/06 02:22:56;;;;;;;3.27;2.97;;;;;;;9.77;100.00;100572.03;5041165;28;20211;-60
2023/01/06 02:25:50;;;;;;;3.43;3.13;;;;;;;9.95;100.00;100573.78;5049721;28;20213;-60
2023/01/06 02:28:36;;;;;;;3.60;2.40;;;;;;;9.95;100.00;100580.66;5050488;28;20219;-59
2023/01/06 02:31:35;;;;;;;3.93;1.93;;;;;;;9.95;100.00;100581.50;5048483;28;20588;-60
2023/01/06 02:34:25;;;;;;;1.90;1.30;;;;;;;9.97;100.00;100569.41;5045342;28;20212;-60
2023/01/06 02:37:08;;;;;;;1.23;1.13;;;;;;;10.01;100.00;100563.22;5034162;28;20177;-61
2023/01/06 02:40:08;;;;;;;0.90;0.90;;;;;;;10.11;100.00;100562.81;5049885;28;20201;-60
2023/01/06 02:42:55;;;;;;;0.90;0.70;;;;;;;10.13;100.00;100553.28;5022209;28;20217;-61
2023/01/06 02:46:02;;;;;;;1.27;0.90;;;;;;;10.14;100.00;100549.81;5050745;28;20177;-60
2023/01/06 02:48:41;;;;;;;0.70;0.70;;;;;;;10.33;100.00;100542.94;5050356;28;20204;-60
2023/01/06 02:51:23;;;;;;;0.87;0.80;;;;;;;10.38;100.00;100537.63;5009266;28;20218;-60
2023/01/06 02:54:13;;;;;;;0.40;0.40;;;;;;;10.48;100.00;100532.84;5037395;28;20189;-60
2023/01/06 02:56:44;;;;;;;0.67;0.50;;;;;;;10.49;100.00;100534.53;5040453;28;20181;-61
2023/01/06 02:59:21;;;;;;;0.40;0.40;;;;;;;10.31;100.00;100521.59;5031598;28;20186;-61
2023/01/06 03:01:51;;;;;;;0.40;0.40;;;;;;;10.42;100.00;100526.28;5020638;28;20301;-61
2023/01/06 03:04:23;;;;;;;0.80;0.80;;;;;;;10.41;100.00;100521.22;5031956;28;20174;-60
2023/01/06 03:06:50;;;;;;;0.80;0.60;;;;;;;10.32;100.00;100525.03;5013598;28;20189;-60
2023/01/06 03:09:20;;;;;;;1.23;0.70;;;;;;;10.31;100.00;100531.06;5031605;28;20240;-60
2023/01/06 03:11:49;;;;;;;0.53;0.53;;;;;;;10.25;100.00;100523.63;5003512;28;20316;-61
2023/01/06 03:14:18;;;;;;;0.80;0.80;;;;;;;10.12;100.00;100531.91;5031113;28;20184;-61
2023/01/06 03:16:43;;;;;;;1.87;0.70;;;;;;;10.07;100.00;100530.44;5030931;28;20228;-60
2023/01/06 03:19:09;;;;;;;1.07;0.57;;;;;;;10.02;100.00;100531.50;5031714;28;20578;-62
2023/01/06 03:21:40;;;;;;;0.60;0.60;;;;;;;9.85;100.00;100531.41;5020656;28;20257;-61
2023/01/06 03:24:07;;;;;;;0.53;0.53;;;;;;;9.99;100.00;100535.94;5030945;28;20225;-60
2023/01/06 03:26:34;;;;;;;0.70;0.70;;;;;;;10.16;100.00;100530.84;5030862;28;20170;-60
2023/01/06 03:29:01;;;;;;;0.70;0.50;;;;;;;10.25;100.00;100529.59;5032073;28;20233;-61
2023/01/06 03:31:54;;;;;;;0.40;0.40;;;;;;;10.22;100.00;100527.19;5038129;28;20218;-60
2023/01/06 03:34:38;;;;;;;4.73;0.63;;;;;;;10.33;100.00;100517.22;5050511;28;20193;-61
2023/01/06 03:37:09;;;;;;;0.40;0.40;;;;;;;10.37;100.00;100522.25;5039287;28;20177;-60
2023/01/06 03:39:58;;;;;;;0.80;0.80;;;;;;;10.37;100.00;100523.09;5049825;28;20201;-61
2023/01/06 03:45:37;;;;;;;0.80;0.80;;;;;;;10.37;100.00;100519.66;5031165;28;20182;-60
2023/01/06 03:48:28;;;;;;;1.40;1.10;;;;;;;10.32;100.00;100514.72;5030723;28;20186;-60
2023/01/06 03:51:05;;;;;;;1.00;0.97;;;;;;;10.10;100.00;100515.72;5029706;28;20226;-60
2023/01/06 03:53:51;;;;;;;1.00;0.90;;;;;;;10.06;100.00;100513.34;5039347;28;20181;-61
2023/01/06 03:56:31;;;;;;;1.30;1.20;;;;;;;9.98;100.00;100508.56;5030285;28;20190;-61
2023/01/06 03:58:59;;;;;;;0.80;0.80;;;;;;;10.05;100.00;100504.81;5030848;28;20232;-60
2023/01/06 04:01:25;;;;;;;0.80;0.80;;;;;;;10.13;100.00;100513.00;5011502;28;20225;-61
2023/01/06 04:03:52;;;;;;;0.83;0.73;;;;;;;10.12;100.00;100505.34;5020586;28;20183;-63
2023/01/06 04:06:17;;;;;;;0.90;0.80;;;;;;;10.06;100.00;100500.50;5032855;28;20209;-60
2023/01/06 04:08:43;;;;;;;0.70;0.70;;;;;;;9.95;100.00;100508.72;5016199;28;20203;-60
2023/01/06 04:12:37;;;;;;;0.77;0.77;;;;;;;10.10;100.00;100510.56;5024240;28;20248;-60
2023/01/06 04:13:53;;;;;;;0.70;0.70;;;;;;;10.11;100.00;100516.53;5034089;28;20205;-60
2023/01/06 04:16:19;;;;;;;0.70;0.70;;;;;;;10.11;100.00;100506.25;5023210;28;20252;-61
2023/01/06 04:18:44;;;;;;;0.53;0.53;;;;;;;10.12;100.00;100510.50;5034237;28;20189;-61
2023/01/06 04:21:09;;;;;;;1.17;0.70;;;;;;;10.03;100.00;100514.31;5023834;28;20568;-61
2023/01/06 04:23:35;;;;;;;0.60;0.60;;;;;;;10.00;100.00;100501.63;5034001;28;20672;-60
2023/01/06 04:26:00;;;;;;;2.40;0.83;;;;;;;10.05;100.00;100512.53;5033917;28;20197;-60
2023/01/06 04:28:25;;;;;;;0.40;0.40;;;;;;;10.08;100.00;100498.69;5034645;28;20194;-60
2023/01/06 04:30:50;;;;;;;0.80;0.67;;;;;;;10.08;100.00;100503.84;5024151;28;20226;-61
2023/01/06 04:33:15;;;;;;;2.53;0.73;;;;;;;10.00;100.00;100505.00;5033792;28;20178;-60
2023/01/06 04:35:42;;;;;;;1.00;0.90;;;;;;;10.06;100.00;100500.50;5027962;28;20189;-60
2023/01/06 04:38:08;;;;;;;1.90;0.60;;;;;;;10.03;100.00;100506.59;5033007;28;20185;-60
2023/01/06 04:40:33;;;;;;;2.40;0.50;;;;;;;10.01;100.00;100503.28;5023048;28;20234;-60
2023/01/06 04:43:05;;;;;;;0.50;0.50;;;;;;;10.01;100.00;100501.53;5034113;28;20537;-60
2023/01/06 04:45:31;;;;;;;1.03;0.43;;;;;;;10.00;100.00;100493.91;5034173;28;20182;-60
2023/01/06 04:47:56;;;;;;;0.40;0.40;;;;;;;9.99;100.00;100499.94;5034164;28;20651;-60
2023/01/06 04:50:21;;;;;;;0.97;0.50;;;;;;;10.02;100.00;100490.38;5020729;28;20239;-60
2023/01/06 04:52:46;;;;;;;0.50;0.50;;;;;;;10.15;100.00;100500.91;5031519;28;20178;-60
2023/01/06 04:55:12;;;;;;;1.53;0.40;;;;;;;10.12;100.00;100500.22;5034058;28;20267;-60
2023/01/06 04:57:37;;;;;;;0.93;0.60;;;;;;;10.06;100.00;100503.06;5032067;28;20190;-60
2023/01/06 05:00:03;;;;;;;0.33;0.33;;;;;;;9.98;100.00;100501.66;5028891;28;20282;-60
2023/01/06 05:02:28;;;;;;;0.50;0.47;;;;;;;10.07;100.00;100490.16;5032216;28;20654;-60
2023/01/06 05:04:54;;;;;;;0.60;0.50;;;;;;;10.13;100.00;100483.88;5044639;28;20209;-60
2023/01/06 05:07:19;;;;;;;1.13;0.50;;;;;;;10.15;100.00;100484.66;5048242;28;20471;-61
2023/01/06 05:09:44;;;;;;;1.27;0.70;;;;;;;10.01;100.00;100498.16;5033622;28;20297;-61
2023/01/06 05:12:10;;;;;;;0.93;0.60;;;;;;;10.01;100.00;100498.97;5022114;28;20273;-60
2023/01/06 05:14:35;;;;;;;3.13;0.63;;;;;;;10.01;100.00;100488.69;5033736;28;20178;-60
2023/01/06 05:17:00;;;;;;;1.57;0.77;;;;;;;10.12;100.00;100489.94;5033540;28;20178;-60
2023/01/06 05:19:25;;;;;;;0.90;0.47;;;;;;;10.01;100.00;100493.00;5034142;28;20194;-60
2023/01/06 05:21:51;;;;;;;2.00;0.50;;;;;;;10.18;100.00;100484.50;5025133;28;20221;-60
2023/01/06 05:24:16;;;;;;;0.93;0.50;;;;;;;10.08;100.00;100484.09;5053011;28;20221;-59
2023/01/06 05:26:41;;;;;;;0.90;0.70;;;;;;;10.02;100.00;100487.78;5035978;28;20184;-60
2023/01/06 05:29:08;;;;;;;0.93;0.50;;;;;;;10.03;100.00;100488.63;5033135;28;20236;-60
2023/01/06 05:31:33;;;;;;;0.83;0.67;;;;;;;10.08;100.00;100489.22;5022529;28;20222;-60
2023/01/06 05:33:58;;;;;;;0.40;0.40;;;;;;;10.00;100.00;100488.78;5032583;28;20193;-60
2023/01/06 05:36:24;;;;;;;0.77;0.70;;;;;;;10.07;100.00;100491.88;5024044;28;20193;-60
2023/01/06 05:38:53;;;;;;;3.00;1.10;;;;;;;10.04;100.00;100492.84;5033255;28;20186;-60
2023/01/06 05:41:18;;;;;;;0.60;0.50;;;;;;;9.91;100.00;100496.88;5022060;28;20267;-60
2023/01/06 05:43:43;;;;;;;0.93;0.53;;;;;;;9.81;100.00;100496.47;5042730;28;20193;-60
2023/01/06 05:46:10;;;;;;;1.30;0.70;;;;;;;10.00;100.00;100505.00;5051938;28;20275;-60
2023/01/06 05:48:37;;;;;;;2.87;0.67;;;;;;;10.05;100.00;100499.66;5034507;28;20652;-61
2023/01/06 05:51:04;;;;;;;2.53;0.93;;;;;;;10.02;100.00;100505.78;5018381;28;20255;-61
2023/01/06 05:53:32;;;;;;;2.17;0.97;;;;;;;10.01;100.00;100500.72;5051887;28;20224;-60
2023/01/06 05:56:01;;;;;;;0.73;0.57;;;;;;;10.09;100.00;100492.66;5047113;28;20185;-60
2023/01/06 05:58:27;;;;;;;0.53;0.53;;;;;;;9.97;100.00;100484.63;5032327;28;20281;-61
2023/01/06 06:00:52;;;;;;;2.37;0.63;;;;;;;9.87;100.00;100495.38;5026560;28;20309;-59
2023/01/06 06:03:17;;;;;;;0.70;0.70;;;;;;;9.84;100.00;100504.06;5040625;28;20182;-59
2023/01/06 06:05:42;;;;;;;2.37;0.87;;;;;;;9.74;100.00;100515.66;5036846;28;20636;-59
2023/01/06 06:08:08;;;;;;;1.97;0.80;;;;;;;9.79;100.00;100511.97;5051492;28;20196;-59
2023/01/06 06:10:33;;;;;;;2.30;0.70;;;;;;;9.73;100.00;100491.69;5002748;28;20242;-59
2023/01/06 06:12:58;;;;;;;1.10;0.57;;;;;;;9.61;100.00;100489.66;5023033;28;20793;-59
2023/01/06 06:15:23;;;;;;;0.50;0.50;;;;;;;9.49;100.00;100493.63;5014636;28;20224;-59
2023/01/06 06:17:49;;;;;;;1.80;1.10;;;;;;;9.28;100.00;100497.91;5032098;28;20215;-59
2023/01/06 06:20:14;;;;;;;2.30;0.80;;;;;;;9.17;100.00;100508.66;5021889;28;20591;-59
2023/01/06 06:22:39;;;;;;;1.47;0.80;;;;;;;9.14;100.00;100514.75;5031061;28;20185;-60
2023/01/06 06:25:05;;;;;;;2.70;0.70;;;;;;;9.28;100.00;100518.44;5031443;28;20225;-60
2023/01/06 06:27:30;;;;;;;1.53;1.27;;;;;;;9.27;100.00;100516.81;5031669;28;20179;-59
2023/01/06 06:29:55;;;;;;;2.60;0.80;;;;;;;9.48;100.00;100512.47;5031987;28;20289;-59
2023/01/06 06:32:21;;;;;;;1.53;1.10;;;;;;;9.52;100.00;100514.00;5004253;28;20253;-59
2023/01/06 06:34:46;;;;;;;5.20;0.80;;;;;;;9.61;100.00;100503.34;5032034;28;20213;-59
2023/01/06 06:37:11;;;;;;;2.13;0.60;;;;;;;9.57;100.00;100508.69;5005953;28;20174;-59
2023/01/06 06:39:36;;;;;;;0.70;0.70;;;;;;;9.56;100.00;100502.69;5032153;28;20227;-59
2023/01/06 06:42:02;;;;;;;1.07;0.73;;;;;;;9.49;100.00;100509.03;5003787;28;20581;-59
2023/01/06 06:44:27;;;;;;;1.00;0.80;;;;;;;9.58;100.00;100512.91;5032113;28;20182;-59
2023/01/06 06:46:52;;;;;;;0.67;0.53;;;;;;;9.53;100.00;100508.81;5041383;28;20271;-59
2023/01/06 06:49:18;;;;;;;2.03;0.97;;;;;;;9.48;100.00;100500.47;5029519;28;20201;-59
2023/01/06 06:51:46;;;;;;;2.00;0.80;;;;;;;9.59;100.00;100505.16;5024149;28;20320;-59
2023/01/06 06:54:11;;;;;;;2.40;0.80;;;;;;;9.50;100.00;100510.66;5043910;28;20169;-59
2023/01/06 06:56:36;;;;;;;2.07;0.90;;;;;;;9.48;100.00;100515.06;5039815;28;20228;-58
2023/01/06 06:59:02;;;;;;;3.17;0.87;;;;;;;9.50;100.00;100513.22;5017774;28;20190;-59
2023/01/06 07:01:27;;;;;;;4.37;0.90;;;;;;;9.51;100.00;100520.03;5020749;28;20341;-59
2023/01/06 07:03:52;;;;;;;1.23;0.93;;;;;;;9.58;100.00;100524.00;5031249;28;20205;-59
2023/01/06 07:06:23;;;;;;;2.23;0.93;;;;;;;9.52;100.00;100531.97;5031038;28;20761;-59
2023/01/06 07:08:48;;;;;;;2.17;1.00;;;;;;;9.45;100.00;100523.72;5030213;28;20194;-59
2023/01/06 07:11:14;;;;;;;1.23;0.77;;;;;;;9.42;100.00;100525.59;5020605;28;20711;-59
2023/01/06 07:13:40;;;;;;;4.10;0.97;;;;;;;9.34;100.00;100528.47;5013881;28;20189;-59
2023/01/06 07:16:06;;;;;;;1.23;0.90;;;;;;;9.30;100.00;100532.06;5030862;28;20197;-59
2023/01/06 07:18:31;;;;;;;5.00;2.10;;;;;;;9.37;100.00;100524.03;5031653;28;20184;-59
2023/01/06 07:20:56;;;;;;;3.70;1.23;;;;;;;9.28;100.00;100519.31;5003919;28;20587;-59
2023/01/06 07:23:22;;;;;;;3.00;1.33;;;;;;;9.27;100.00;100516.81;5030607;28;20174;-59
2023/01/06 07:25:56;;;;;;;1.17;0.70;;;;;;;9.20;100.00;100518.78;5031093;28;20190;-63
2023/01/06 07:28:22;;;;;;;1.93;0.80;;;;;;;9.29;100.00;100522.69;5031582;28;20210;-59
2023/01/06 07:30:47;;;;;;;0.97;0.80;;;;;;;9.37;100.00;100525.78;5019764;28;20763;-59
2023/01/06 07:33:12;;;;;;;3.13;1.20;;;;;;;9.27;100.00;100527.91;5014802;28;20186;-59
2023/01/06 07:35:37;;;;;;;1.00;0.90;;;;;;;9.39;100.00;100518.84;5024806;28;20178;-59
2023/01/06 07:38:04;;;;;;;1.87;1.07;;;;;;;9.32;100.00;100515.69;5033240;28;20185;-59
2023/01/06 07:40:30;;;;;;;3.23;1.20;;;;;;;9.48;100.00;100518.44;5023437;28;20688;-59
2023/01/06 07:42:55;;;;;;;2.20;0.90;;;;;;;9.55;100.00;100525.88;5022198;28;20185;-59
2023/01/06 07:45:20;;;;;;;1.33;1.00;;;;;;;9.40;100.00;100524.81;5053627;28;20181;-60
2023/01/06 07:47:46;;;;;;;1.63;1.00;;;;;;;9.48;100.00;100522.75;5050680;28;20178;-61
2023/01/06 07:50:11;;;;;;;1.53;1.07;;;;;;;9.44;100.00;100527.19;5039593;28;20220;-60
2023/01/06 07:52:36;;;;;;;3.33;1.20;;;;;;;9.53;100.00;100520.81;5047831;28;20184;-59
2023/01/06 07:55:02;;;;;;;2.67;1.03;;;;;;;9.61;100.00;100517.91;5053264;28;20544;-60
2023/01/06 07:57:28;;;;;;;2.20;1.00;;;;;;;9.63;100.00;100523.81;5048861;28;20193;-60
2023/01/06 07:59:54;;;;;;;1.67;0.80;;;;;;;9.70;100.00;100532.94;5029473;28;20181;-59
2023/01/06 08:02:20;;;;;;;0.80;0.80;;;;;;;9.71;100.00;100533.75;5002085;28;20274;-70
2023/01/06 08:04:46;;;;;;;2.90;0.70;;;;;;;9.83;100.00;100541.75;4998890;28;20206;-69
2023/01/06 08:07:12;;;;;;;1.37;0.70;;;;;;;9.76;100.00;100534.38;5017676;28;20590;-69
2023/01/06 08:09:37;;;;;;;1.60;0.80;;;;;;;9.76;100.00;100530.09;5005618;28;20206;-70
2023/01/06 08:12:03;;;;;;;1.63;0.90;;;;;;;9.86;100.00;100527.94;5009869;28;20223;-68
2023/01/06 08:14:28;;;;;;;0.70;0.70;;;;;;;9.96;100.00;100536.91;5032824;28;20673;-59
2023/01/06 08:16:53;;;;;;;2.33;1.00;;;;;;;10.08;100.00;100532.09;5018789;28;20284;-59
2023/01/06 08:19:18;;;;;;;2.57;1.23;;;;;;;10.14;100.00;100537.78;5024601;28;20251;-59
2023/01/06 08:21:44;;;;;;;1.20;0.80;;;;;;;10.20;100.00;100530.72;5014322;28;20272;-60
2023/01/06 08:24:09;;;;;;;1.03;0.80;;;;;;;10.07;100.00;100530.44;5024292;28;20236;-61
2023/01/06 08:26:34;;;;;;;2.40;1.50;;;;;;;10.15;100.00;100528.38;5026930;28;20259;-59
2023/01/06 08:29:00;;;;;;;2.57;0.90;;;;;;;10.28;100.00;100532.03;5034079;28;20227;-60
2023/01/06 08:31:25;;;;;;;1.80;1.07;;;;;;;10.34;100.00;100538.63;5020565;28;20305;-61
2023/01/06 08:33:52;;;;;;;1.70;0.90;;;;;;;10.21;100.00;100532.38;5023170;28;20194;-61
2023/01/06 08:36:19;;;;;;;2.40;1.20;;;;;;;10.14;100.00;100530.06;5023404;28;20634;-60
2023/01/06 08:38:45;;;;;;;2.23;1.23;;;;;;;10.17;100.00;100529.94;5011418;28;20191;-60
2023/01/06 08:41:11;;;;;;;1.67;0.90;;;;;;;10.23;100.00;100523.69;5018510;28;20229;-59
2023/01/06 08:43:39;;;;;;;2.77;1.20;;;;;;;10.20;100.00;100523.84;5028864;28;20645;-60
2023/01/06 08:46:06;;;;;;;5.37;1.20;;;;;;;10.21;100.00;100529.78;5029673;28;20630;-60
2023/01/06 08:48:33;;;;;;;3.53;1.07;;;;;;;9.99;100.00;100535.94;5007617;28;20209;-60
2023/01/06 08:51:06;;;;;;;1.93;0.70;;;;;;;10.14;100.00;100535.22;5001330;28;20230;-60
2023/01/06 08:53:32;;;;;;;3.27;1.17;;;;;;;10.10;100.00;100543.16;5009057;28;20217;-60
2023/01/06 08:55:57;;;;;;;1.40;1.00;;;;;;;10.31;100.00;100539.59;5024375;28;20183;-59
2023/01/06 08:58:23;;;;;;;0.93;0.67;;;;;;;10.26;100.00;100526.13;5019134;28;20190;-60
2023/01/06 09:00:48;;;;;;;1.00;0.83;;;;;;;10.42;100.00;100526.28;5016914;28;20260;-60
2023/01/06 09:03:14;;;;;;;2.47;1.10;;;;;;;10.46;100.00;100532.94;5023706;28;20239;-60
2023/01/06 09:05:39;;;;;;;1.07;0.97;;;;;;;10.52;100.00;100528.41;5009825;28;20214;-60
2023/01/06 09:08:04;;;;;;;2.73;1.00;;;;;;;10.63;100.00;100537.28;5030235;28;20177;-60
2023/01/06 09:10:29;;;;;;;2.10;1.13;;;;;;;10.64;100.00;100538.09;5013877;28;20254;-59
2023/01/06 09:12:55;;;;;;;0.80;0.70;;;;;;;10.59;100.00;100532.34;5015053;28;20673;-59
2023/01/06 09:20:41;;;;;;;;;;;;;;;10.05;100.00;100548.50;5078940;27;19924;-74
2023/01/06 09:23:07;;;;;;;;;;;;;;;10.13;100.00;100548.16;5054757;28;19976;-72
2023/01/06 09:25:32;;;;;;;;;;;;;;;10.45;100.00;100545.88;5040252;28;19933;-71
2023/01/06 09:27:58;;;;;;;;;;;;;;;10.36;100.00;100553.97;5031547;28;19921;-73
2023/01/06 09:30:24;;;;;;;;;;;;;;;10.22;100.00;100559.75;5027453;28;19983;-72
2023/01/06 09:32:49;;;;;;;;;;;;;;;10.29;100.00;100561.13;5051972;28;19917;-73
2023/01/06 09:35:14;;;;;;;;;;;;;;;10.32;100.00;100564.41;5025933;28;19924;-75
2023/01/06 09:37:39;;;;;;;;;;;;;;;10.36;100.00;100562.56;5030480;28;20328;-72
2023/01/06 09:40:05;;;;;;;;;;;;;;;10.43;100.00;100555.38;4941973;28;1473706;-60
2023/01/06 09:42:47;;;;;;;;;;;;;;;10.61;100.00;100564.81;4938777;28;3267499;-60
2023/01/06 09:45:18;;;;;;;;;;;;;;;10.71;100.00;100575.50;5021816;28;19913;-61
2023/01/06 09:47:47;;;;;;;;;;;;;;;10.68;100.00;100567.94;5034227;28;20023;-60
2023/01/06 09:50:31;;;;;;;;;;;;;;;10.72;100.00;100579.75;5031522;28;19924;-61
2023/01/06 09:52:59;;;;;;;;;;;;;;;10.74;100.00;100579.66;5040469;28;19917;-61
2023/01/06 09:55:30;;;;;;;;;;;;;;;10.80;100.00;100576.81;5029047;28;19983;-60
2023/01/06 09:57:58;;;;;;;;;;;;;;;10.79;100.00;100575.13;5041884;28;20012;-61
2023/01/06 10:00:38;;;;;;;;;;;;;;;10.76;100.00;100583.84;5030076;28;20384;-60
2023/01/06 10:03:04;;;;;;;;;;;;;;;10.74;100.00;100583.09;5051027;28;20015;-60
2023/01/06 10:09:52;;;;;;;;;;;;;;;10.89;100.00;100590.97;5154902;27;19949;-61
2023/01/06 10:12:30;;;;;;;;;;;;;;;10.69;100.00;100589.34;5068480;27;20016;-60
2023/01/06 10:14:58;;;;;;;;;;;;;;;10.70;100.00;100581.56;5107815;28;20355;-59
2023/01/06 10:17:31;;;;;;;;;;;;;;;10.66;100.00;100580.84;5108189;28;20025;-60
2023/01/06 10:20:14;;;;;;;;;;;;;;;10.85;100.00;100579.97;5090541;28;19920;-60
2023/01/06 10:22:49;;;;;;;;;;;;;;;10.95;100.00;100573.50;5080830;28;19928;-59
2023/01/06 10:25:26;;;;;;;;;;;;;;;11.12;100.00;100562.34;5087695;28;19919;-60
2023/01/06 10:28:00;;;;;;;;;;;;;;;11.33;100.00;100564.78;5107770;28;19920;-60
2023/01/06 10:30:33;;;;;;;;;;;;;;;11.34;100.00;100569.03;5059336;28;19952;-61
2023/01/06 10:32:58;;;;;;;;;;;;;;;11.11;100.00;100565.00;5091959;28;20014;-59
2023/01/06 10:35:25;;;;;;;;;;;;;;;10.97;100.00;100556.22;5105227;28;19948;-60
2023/01/06 10:37:51;;;;;;;;;;;;;;;11.10;100.00;100560.78;4749786;28;4069509;-60
2023/01/06 10:44:35;;;;;;;;;;;;;;;11.26;100.00;100563.41;4904504;27;5260153;-60
2023/01/06 10:47:00;;;;;;;;;;;;;;;11.48;100.00;100567.50;5083973;28;19925;-61
2023/01/06 10:49:25;;;;;;;;;;;;;;;11.36;100.00;100566.38;5083448;28;20015;-61
2023/01/06 10:51:53;;;;;;;;;;;;;;;11.38;100.00;100562.81;5059630;28;20001;-61
2023/01/06 10:54:21;;;;;;;;;;;;;;;11.44;100.00;100554.78;5050543;28;19928;-60
2023/01/06 10:56:52;;;;;;;;;;;;;;;11.67;100.00;100560.50;5047829;28;20365;-60
2023/01/06 10:59:17;;;;;;;;;;;;;;;11.54;100.00;100547.41;5047763;28;19917;-60
2023/01/06 11:01:47;;;;;;;;;;;;;;;11.44;100.00;100535.91;5054436;28;19925;-60
2023/01/06 11:04:14;;;;;;;;;;;;;;;11.60;100.00;100526.47;5050623;28;19970;-59
2023/01/06 11:06:59;;;;;;;;;;;;;;;12.10;100.00;100524.72;5044010;28;19921;-60
2023/01/06 11:09:27;;;;;;;;;;;;;;;12.24;100.00;100523.16;5044920;28;19928;-60
2023/01/06 11:11:53;;;;;;;;;;;;;;;12.34;100.00;100533.78;5043126;28;19947;-59
2023/01/06 11:14:20;;;;;;;;;;;;;;;12.17;100.00;100534.72;5048796;28;20300;-59
2023/01/06 11:17:02;;;;;;;;;;;;;;;11.76;100.00;100525.69;5047025;28;19928;-59
2023/01/06 11:19:35;;;;;;;;;;;;;;;11.69;100.00;100535.47;5039137;28;19963;-59
2023/01/06 11:22:00;;;;;;;;;;;;;;;11.61;100.00;100530.72;5053579;28;20003;-59
2023/01/06 11:24:26;;;;;;;;;;;;;;;11.66;100.00;100532.22;5039771;28;20028;-59
2023/01/06 11:26:56;;;;;;;;;;;;;;;11.82;100.00;100527.94;5048562;28;20453;-59
2023/01/06 11:29:25;;;;;;;;;;;;;;;11.84;100.00;100530.44;5048614;28;19928;-59
2023/01/06 11:31:50;;;;;;;;;;;;;;;11.84;100.00;100513.22;5052202;28;19931;-59
2023/01/06 11:34:20;;;;;;;;;;;;;;;11.86;100.00;100513.97;5050074;28;19921;-59
2023/01/06 11:36:46;;;;;;;;;;;;;;;11.63;100.00;100510.88;5055911;28;19921;-61
2023/01/06 11:39:14;;;;;;;;;;;;;;;11.39;100.00;100512.97;5048248;28;19939;-59
2023/01/06 11:41:42;;;;;;;;;;;;;;;11.39;100.00;100512.97;5050664;28;20284;-59
2023/01/06 11:44:12;;;;;;;;;;;;;;;11.26;100.00;100510.19;5066790;28;20457;-60
2023/01/06 11:46:38;;;;;;;;;;;;;;;11.20;100.00;100505.34;5068051;28;19917;-59
2023/01/06 11:49:08;;;;;;;;;;;;;;;11.09;100.00;100500.75;5068103;28;19917;-59
2023/01/06 11:51:39;;;;;;;;;;;;;;;10.98;100.00;100506.41;5061767;28;19967;-59
2023/01/06 11:54:19;;;;;;;;;;;;;;;10.85;100.00;100512.25;5064561;28;19955;-60
2023/01/06 11:56:56;;;;;;;;;;;;;;;10.91;100.00;100501.66;5046617;28;19994;-59
2023/01/06 11:59:23;;;;;;;;;;;;;;;10.95;100.00;100493.72;5054611;28;19921;-60